首页
METAR-TAF:

METAR-TAF

机场 :

Stony Rapids, 薩斯喀徹溫, 加拿大

纬度: 59-15N, 经度: 105-50W, 海拔: 250米

当前天气观测

该预报发布于20分钟前的21:00 UTC
风速5节,风向西
温度 -28°C
湿度 68%
气压 1024 hPa
能見度: 14.5公里
天空无云

METAR: CYSF 112100Z AUTO 28005KT 9SM CLR M28/M32 A3024 RMK SLP282

时间: 15:20 (21:20 UTC)

预报

该预报发布于3小时和42分钟前的17:38 UTC
预报有效从11日的 18点(UTC)到 12日的 06点(UTC)
风速5节,风向西
能見度: 10公里
天空无云
从 12日的 0200点(UTC)
风速4节,风向西转西北
能見度: 10公里
少量云层高于5000英尺

TAF: CYSF 111738Z 1118/1206 28005KT P6SM SKC FM120200 29004KT P6SM FEW050 RMK FCST BASED ON AUTO OBS. NXT FCST BY 120000Z

超过4000个机场的气象观测和天气预报(METAR&TAF报告)。

可查询的气象台以黄色和红色小点在地图上表示。

将鼠标移到小点上方,可查看气象台名称。

然后点击查看天气观测和预报。

如需切换地图:点击带黑十字的绿色按钮放大地图;点击带横线的绿色按钮缩小地图;或者点击绿色箭头查看邻近地区的地图。


METAR-TAF: